Time,TemperatureF,DewpointF,PressureIn,WindDirection,WindDirectionDegrees,WindSpeedMPH,WindSpeedGustMPH,Humidity,HourlyPrecipIn,Conditions,Clouds,dailyrainin,SoftwareType,DateUTC
2013-08-29 00:02:00,56.5,28.3,29.84,SSW,203,0.0,0.0,34,0.00,,,0.00,WUHU216HW,2013-08-29 06:02:00,
2013-08-29 00:07:00,56.5,29.7,29.84,SSW,203,0.0,0.0,36,0.00,,,0.00,WUHU216HW,2013-08-29 06:07:00,
2013-08-29 00:12:00,56.2,30.8,29.84,SSW,203,0.0,0.0,38,0.00,,,0.00,WUHU216HW,2013-08-29 06:12:00,
2013-08-29 00:17:00,56.2,28.6,29.84,SSW,203,0.0,0.0,35,0.00,,,0.00,WUHU216HW,2013-08-29 06:17:00,
2013-08-29 00:22:00,56.2,28.6,29.84,SSW,203,0.0,0.0,35,0.00,,,0.00,WUHU216HW,2013-08-29 06:22:00,
2013-08-29 00:27:00,56.2,29.3,29.84,SSW,203,0.0,0.0,36,0.00,,,0.00,WUHU216HW,2013-08-29 06:27:00,
2013-08-29 00:32:00,56.2,27.9,29.84,SSW,203,0.0,0.0,34,0.00,,,0.00,WUHU216HW,2013-08-29 06:32:00,
2013-08-29 00:37:00,56.2,29.3,29.84,SSW,203,0.0,0.0,36,0.00,,,0.00,WUHU216HW,2013-08-29 06:37:00,
2013-08-29 00:42:00,56.0,28.4,29.84,SSW,203,0.0,0.0,35,0.00,,,0.00,WUHU216HW,2013-08-29 06:42:00,
2013-08-29 00:47:00,56.0,29.2,29.84,SSW,203,0.0,0.0,36,0.00,,,0.00,WUHU216HW,2013-08-29 06:47:00,
2013-08-29 00:52:00,55.8,29.0,29.84,SSW,203,0.0,0.0,36,0.00,,,0.00,WUHU216HW,2013-08-29 06:52:00,
2013-08-29 00:57:00,55.8,27.6,29.84,SSW,203,0.0,0.0,34,0.00,,,0.00,WUHU216HW,2013-08-29 06:57:00,
2013-08-29 01:02:00,55.8,26.9,29.84,SSW,203,0.0,0.0,33,0.00,,,0.00,WUHU216HW,2013-08-29 07:02:00,
2013-08-29 01:07:00,55.8,26.9,29.84,SSW,203,0.0,0.0,33,0.00,,,0.00,WUHU216HW,2013-08-29 07:07:00,
2013-08-29 01:12:00,55.8,26.9,29.84,SSW,203,0.0,0.0,33,0.00,,,0.00,WUHU216HW,2013-08-29 07:12:00,
2013-08-29 01:17:00,55.6,25.4,29.84,SSW,203,0.0,0.0,31,0.00,,,0.00,WUHU216HW,2013-08-29 07:17:00,
2013-08-29 01:22:00,55.8,25.5,29.84,SSW,203,0.0,0.0,31,0.00,,,0.00,WUHU216HW,2013-08-29 07:22:00,
2013-08-29 01:27:00,55.6,25.4,29.84,SSW,203,0.0,0.0,31,0.00,,,0.00,WUHU216HW,2013-08-29 07:27:00,
2013-08-29 01:32:00,55.6,25.4,29.84,SSW,203,0.0,0.0,31,0.00,,,0.00,WUHU216HW,2013-08-29 07:32:00,
2013-08-29 01:37:00,55.6,25.4,29.84,SSW,203,0.0,0.0,31,0.00,,,0.00,WUHU216HW,2013-08-29 07:37:00,
2013-08-29 01:42:00,55.6,25.4,29.84,SSW,203,0.0,0.0,31,0.00,,,0.00,WUHU216HW,2013-08-29 07:42:00,
2013-08-29 01:47:00,55.6,25.4,29.84,SSW,203,0.0,0.0,31,0.00,,,0.00,WUHU216HW,2013-08-29 07:47:00,
2013-08-29 01:52:00,55.6,24.7,29.84,SSW,203,0.0,0.0,30,0.00,,,0.00,WUHU216HW,2013-08-29 07:52:00,
2013-08-29 01:57:00,55.4,24.5,29.84,SSW,203,0.0,0.0,30,0.00,,,0.00,WUHU216HW,2013-08-29 07:57:00,
2013-08-29 02:02:00,55.6,24.7,29.84,SSW,203,0.0,0.0,30,0.00,,,0.00,WUHU216HW,2013-08-29 08:02:00,
2013-08-29 02:07:00,55.6,24.7,29.84,SSW,203,0.0,0.0,30,0.00,,,0.00,WUHU216HW,2013-08-29 08:07:00,
2013-08-29 02:12:00,55.6,25.4,29.84,SSW,203,0.0,0.0,31,0.00,,,0.00,WUHU216HW,2013-08-29 08:12:00,
2013-08-29 02:17:00,55.4,25.2,29.84,SSW,203,0.0,0.0,31,0.00,,,0.00,WUHU216HW,2013-08-29 08:17:00,
2013-08-29 02:22:00,55.4,24.5,29.84,SSW,203,0.0,0.0,30,0.00,,,0.00,WUHU216HW,2013-08-29 08:22:00,
2013-08-29 02:27:00,55.4,23.6,29.84,SSW,203,0.0,0.0,29,0.00,,,0.00,WUHU216HW,2013-08-29 08:27:00,
2013-08-29 02:32:00,55.3,22.5,29.84,SSW,203,0.0,0.0,28,0.00,,,0.00,WUHU216HW,2013-08-29 08:32:00,
2013-08-29 02:37:00,55.3,21.5,29.84,SSW,203,0.0,0.0,27,0.00,,,0.00,WUHU216HW,2013-08-29 08:37:00,
2013-08-29 02:42:00,55.3,21.5,29.84,SSW,203,0.0,0.0,27,0.00,,,0.00,WUHU216HW,2013-08-29 08:42:00,
2013-08-29 02:47:00,55.3,19.6,29.84,SSW,203,0.0,0.0,25,0.00,,,0.00,WUHU216HW,2013-08-29 08:47:00,
2013-08-29 02:52:00,55.3,21.5,29.84,SSW,203,0.0,0.0,27,0.00,,,0.00,WUHU216HW,2013-08-29 08:52:00,
2013-08-29 02:57:00,55.3,21.5,29.84,SSW,203,0.0,0.0,27,0.00,,,0.00,WUHU216HW,2013-08-29 08:57:00,
2013-08-29 03:02:00,55.3,19.6,29.84,SSW,203,0.0,0.0,25,0.00,,,0.00,WUHU216HW,2013-08-29 09:02:00,
2013-08-29 03:07:00,55.3,19.6,29.84,SSW,203,0.0,0.0,25,0.00,,,0.00,WUHU216HW,2013-08-29 09:07:00,
2013-08-29 03:12:00,55.1,19.5,29.84,SSW,203,0.0,0.0,25,0.00,,,0.00,WUHU216HW,2013-08-29 09:12:00,
2013-08-29 03:17:00,55.1,21.3,29.84,SSW,203,0.0,0.0,27,0.00,,,0.00,WUHU216HW,2013-08-29 09:17:00,
2013-08-29 03:22:00,55.1,19.5,29.84,SSW,203,0.0,0.0,25,0.00,,,0.00,WUHU216HW,2013-08-29 09:22:00,
2013-08-29 03:27:00,55.1,21.3,29.84,SSW,203,0.0,0.0,27,0.00,,,0.00,WUHU216HW,2013-08-29 09:27:00,
2013-08-29 03:32:00,55.1,21.3,29.84,SSW,203,0.0,0.0,27,0.00,,,0.00,WUHU216HW,2013-08-29 09:32:00,
2013-08-29 03:37:00,55.1,22.3,29.84,SSW,203,0.0,0.0,28,0.00,,,0.00,WUHU216HW,2013-08-29 09:37:00,
2013-08-29 03:42:00,55.1,21.3,29.84,SSW,203,0.0,0.0,27,0.00,,,0.00,WUHU216HW,2013-08-29 09:42:00,
2013-08-29 03:47:00,55.1,21.3,29.84,SSW,203,0.0,0.0,27,0.00,,,0.00,WUHU216HW,2013-08-29 09:47:00,
2013-08-29 03:52:00,55.1,21.3,29.84,SSW,203,0.0,0.0,27,0.00,,,0.00,WUHU216HW,2013-08-29 09:52:00,
2013-08-29 03:57:00,54.9,21.3,29.84,SSW,203,0.0,0.0,27,0.00,,,0.00,WUHU216HW,2013-08-29 09:57:00,
2013-08-29 04:02:00,54.9,21.3,29.84,SSW,203,0.0,0.0,27,0.00,,,0.00,WUHU216HW,2013-08-29 10:02:00,
2013-08-29 04:07:00,54.7,22.1,29.84,SSW,203,0.0,0.0,28,0.00,,,0.00,WUHU216HW,2013-08-29 10:07:00,
2013-08-29 04:12:00,54.7,21.1,29.84,SSW,203,0.0,0.0,27,0.00,,,0.00,WUHU216HW,2013-08-29 10:12:00,
2013-08-29 04:17:00,54.5,21.0,29.84,SSW,203,0.0,0.0,27,0.00,,,0.00,WUHU216HW,2013-08-29 10:17:00,
2013-08-29 04:22:00,54.5,19.1,29.84,SSW,203,0.0,0.0,25,0.00,,,0.00,WUHU216HW,2013-08-29 10:22:00,
2013-08-29 04:27:00,54.5,19.1,29.84,SSW,203,0.0,0.0,25,0.00,,,0.00,WUHU216HW,2013-08-29 10:27:00,
2013-08-29 04:32:00,54.5,19.1,29.84,SSW,203,0.0,0.0,25,0.00,,,0.00,WUHU216HW,2013-08-29 10:32:00,
2013-08-29 04:37:00,54.4,17.9,29.84,SSW,203,0.0,0.0,24,0.00,,,0.00,WUHU216HW,2013-08-29 10:37:00,
2013-08-29 04:42:00,54.4,17.9,29.84,SSW,203,0.0,0.0,24,0.00,,,0.00,WUHU216HW,2013-08-29 10:42:00,
2013-08-29 04:47:00,54.4,17.9,29.84,SSW,203,0.0,0.0,24,0.00,,,0.00,WUHU216HW,2013-08-29 10:47:00,
2013-08-29 04:52:00,54.4,17.9,29.84,SSW,203,0.0,0.0,24,0.00,,,0.00,WUHU216HW,2013-08-29 10:52:00,
2013-08-29 04:57:00,54.4,17.0,29.84,SSW,203,0.0,0.0,23,0.00,,,0.00,WUHU216HW,2013-08-29 10:57:00,
2013-08-29 05:02:00,54.2,17.8,29.84,SSW,203,0.0,0.0,24,0.00,,,0.00,WUHU216HW,2013-08-29 11:02:00,
2013-08-29 05:07:00,54.0,17.7,29.84,SSW,203,0.0,0.0,24,0.00,,,0.00,WUHU216HW,2013-08-29 11:07:00,
2013-08-29 05:12:00,54.0,16.7,29.84,SSW,203,0.0,0.0,23,0.00,,,0.00,WUHU216HW,2013-08-29 11:12:00,
2013-08-29 05:17:00,54.0,15.8,29.84,SSW,203,0.0,0.0,22,0.00,,,0.00,WUHU216HW,2013-08-29 11:17:00,
2013-08-29 05:22:00,54.0,15.8,29.84,SSW,203,0.0,0.0,22,0.00,,,0.00,WUHU216HW,2013-08-29 11:22:00,
2013-08-29 05:27:00,53.8,10.6,29.84,SSW,203,0.0,0.0,18,0.00,,,0.00,WUHU216HW,2013-08-29 11:27:00,
2013-08-29 05:32:00,54.0,13.9,29.84,SSW,203,0.0,0.0,20,0.00,,,0.00,WUHU216HW,2013-08-29 11:32:00,
2013-08-29 05:37:00,54.0,7.7,29.84,SSW,203,0.0,0.0,16,0.00,,,0.00,WUHU216HW,2013-08-29 11:37:00,
2013-08-29 05:42:00,54.0,9.3,29.84,SSW,203,0.0,0.0,17,0.00,,,0.00,WUHU216HW,2013-08-29 11:42:00,
2013-08-29 05:47:00,53.8,12.2,29.84,SSW,203,0.0,0.0,19,0.00,,,0.00,WUHU216HW,2013-08-29 11:47:00,
2013-08-29 05:52:00,53.8,10.6,29.84,SSW,203,0.0,0.0,18,0.00,,,0.00,WUHU216HW,2013-08-29 11:52:00,
2013-08-29 05:57:00,53.8,10.6,29.84,SSW,203,0.0,0.0,18,0.00,,,0.00,WUHU216HW,2013-08-29 11:57:00,
2013-08-29 06:02:00,53.6,13.5,29.84,SSW,203,0.0,0.0,20,0.00,,,0.00,WUHU216HW,2013-08-29 12:02:00,
2013-08-29 06:07:00,53.6,10.4,29.84,SSW,203,0.0,0.0,18,0.00,,,0.00,WUHU216HW,2013-08-29 12:07:00,
2013-08-29 06:12:00,53.6,10.4,29.84,SSW,203,0.0,0.0,18,0.00,,,0.00,WUHU216HW,2013-08-29 12:12:00,
2013-08-29 06:17:00,53.5,10.4,29.84,SSW,203,0.0,0.0,18,0.00,,,0.00,WUHU216HW,2013-08-29 12:17:00,
2013-08-29 06:22:00,53.3,8.6,29.84,SSW,203,0.0,0.0,17,0.00,,,0.00,WUHU216HW,2013-08-29 12:22:00,
2013-08-29 06:27:00,53.3,10.2,29.84,SSW,203,0.0,0.0,18,0.00,,,0.00,WUHU216HW,2013-08-29 12:27:00,
2013-08-29 06:32:00,53.3,8.6,29.84,SSW,203,0.0,0.0,17,0.00,,,0.00,WUHU216HW,2013-08-29 12:32:00,
2013-08-29 06:37:00,53.1,5.5,29.84,SSW,203,0.0,0.0,15,0.00,,,0.00,WUHU216HW,2013-08-29 12:37:00,
2013-08-29 06:42:00,53.1,5.5,29.84,SSW,203,0.0,0.0,15,0.00,,,0.00,WUHU216HW,2013-08-29 12:42:00,
2013-08-29 06:47:00,53.1,7.0,29.84,SSW,203,0.0,0.0,16,0.00,,,0.00,WUHU216HW,2013-08-29 12:47:00,
2013-08-29 06:52:00,53.1,4.0,29.84,SSW,203,0.0,0.0,14,0.00,,,0.00,WUHU216HW,2013-08-29 12:52:00,
2013-08-29 06:57:00,53.1,5.5,29.84,SSW,203,0.0,0.9,15,0.00,,,0.00,WUHU216HW,2013-08-29 12:57:00,
2013-08-29 07:02:00,52.9,5.4,29.84,SSW,203,0.0,0.9,15,0.00,,,0.00,WUHU216HW,2013-08-29 13:02:00,
2013-08-29 07:07:00,52.9,6.8,29.84,SSW,203,0.0,0.0,16,0.00,,,0.00,WUHU216HW,2013-08-29 13:07:00,
2013-08-29 07:12:00,52.9,6.8,29.85,SSW,203,0.0,0.0,16,0.00,,,0.00,WUHU216HW,2013-08-29 13:12:00,
2013-08-29 07:17:00,52.9,5.4,29.84,SSW,203,0.0,0.0,15,0.00,,,0.00,WUHU216HW,2013-08-29 13:17:00,
2013-08-29 07:22:00,53.1,5.5,29.85,SSW,203,0.0,0.0,15,0.00,,,0.00,WUHU216HW,2013-08-29 13:22:00,
2013-08-29 07:27:00,53.3,5.7,29.85,SSW,203,0.0,0.0,15,0.00,,,0.00,WUHU216HW,2013-08-29 13:27:00,
2013-08-29 07:32:00,53.3,5.7,29.85,SSW,203,0.0,0.0,15,0.00,,,0.00,WUHU216HW,2013-08-29 13:32:00,
2013-08-29 07:37:00,53.5,1.3,29.85,SSW,203,0.0,0.0,12,0.00,,,0.00,WUHU216HW,2013-08-29 13:37:00,
2013-08-29 07:42:00,53.6,1.5,29.84,SSW,203,0.0,0.0,12,0.00,,,0.00,WUHU216HW,2013-08-29 13:42:00,
2013-08-29 07:47:00,53.8,1.5,29.85,SSW,203,0.0,0.0,12,0.00,,,0.00,WUHU216HW,2013-08-29 13:47:00,
2013-08-29 07:52:00,54.0,0.2,29.85,SSW,203,0.0,0.0,11,0.00,,,0.00,WUHU216HW,2013-08-29 13:52:00,
2013-08-29 07:57:00,54.2,0.4,29.85,SSW,203,0.0,0.0,11,0.00,,,0.00,WUHU216HW,2013-08-29 13:57:00,
2013-08-29 08:02:00,54.5,0.6,29.85,SSW,203,0.0,1.1,11,0.00,,,0.00,WUHU216HW,2013-08-29 14:02:00,
2013-08-29 08:07:00,54.7,2.3,29.84,SSW,203,0.0,1.1,12,0.00,,,0.00,WUHU216HW,2013-08-29 14:07:00,
2013-08-29 08:12:00,55.1,-0.4,29.85,SSW,203,0.0,0.0,8,0.00,,,0.00,WUHU216HW,2013-08-29 14:12:00,
2013-08-29 08:17:00,55.6,-0.1,29.85,SSW,203,0.0,0.0,10,0.00,,,0.00,WUHU216HW,2013-08-29 14:17:00,
2013-08-29 08:22:00,56.0,0.2,29.85,SSW,203,0.0,0.0,10,0.00,,,0.00,WUHU216HW,2013-08-29 14:22:00,
2013-08-29 08:27:00,56.3,2.0,29.85,SSW,203,0.0,0.0,11,0.00,,,0.00,WUHU216HW,2013-08-29 14:27:00,
2013-08-29 08:32:00,56.9,4.0,29.85,SSW,203,0.0,0.0,12,0.00,,,0.00,WUHU216HW,2013-08-29 14:32:00,
2013-08-29 08:37:00,57.2,5.8,29.85,SSW,203,0.0,0.0,13,0.00,,,0.00,WUHU216HW,2013-08-29 14:37:00,
2013-08-29 08:42:00,57.6,10.6,29.85,SSW,203,0.0,0.0,16,0.00,,,0.00,WUHU216HW,2013-08-29 14:42:00,
2013-08-29 08:47:00,58.1,12.6,29.85,SSW,203,0.0,0.2,17,0.00,,,0.00,WUHU216HW,2013-08-29 14:47:00,
2013-08-29 08:52:00,58.5,14.5,29.85,SSW,203,0.0,0.4,18,0.00,,,0.00,WUHU216HW,2013-08-29 14:52:00,
2013-08-29 08:57:00,59.0,20.9,29.85,SSW,203,0.0,0.4,23,0.00,,,0.00,WUHU216HW,2013-08-29 14:57:00,
2013-08-29 09:02:00,59.6,25.3,29.85,SSW,203,0.0,0.4,27,0.00,,,0.00,WUHU216HW,2013-08-29 15:02:00,
2013-08-29 09:07:00,60.1,34.3,29.85,SSW,203,1.1,1.1,38,0.00,,,0.00,WUHU216HW,2013-08-29 15:07:00,
2013-08-29 09:12:00,60.7,31.9,29.85,SSW,203,0.0,1.1,34,0.00,,,0.00,WUHU216HW,2013-08-29 15:12:00,
2013-08-29 09:17:00,61.0,32.2,29.85,SSW,203,0.0,0.0,34,0.00,,,0.00,WUHU216HW,2013-08-29 15:17:00,
2013-08-29 09:22:00,61.2,32.4,29.85,SSW,203,0.0,0.0,34,0.00,,,0.00,WUHU216HW,2013-08-29 15:22:00,
2013-08-29 09:27:00,61.7,34.3,29.85,SSW,203,0.0,0.0,36,0.00,,,0.00,WUHU216HW,2013-08-29 15:27:00,
2013-08-29 09:32:00,62.5,43.0,29.86,NE,45,1.1,1.1,49,0.00,,,0.00,WUHU216HW,2013-08-29 15:32:00,
2013-08-29 09:37:00,63.2,43.1,29.86,NNE,23,0.0,1.1,48,0.00,,,0.00,WUHU216HW,2013-08-29 15:37:00,
2013-08-29 09:42:00,63.0,42.9,29.86,NE,45,0.0,2.2,48,0.00,,,0.00,WUHU216HW,2013-08-29 15:42:00,
2013-08-29 09:47:00,62.5,40.7,29.87,WSW,248,0.9,2.2,45,0.00,,,0.00,WUHU216HW,2013-08-29 15:47:00,
2013-08-29 09:52:00,61.7,37.7,29.88,NW,315,0.0,1.1,41,0.00,,,0.00,WUHU216HW,2013-08-29 15:52:00,
2013-08-29 09:57:00,61.6,37.0,29.87,WSW,248,0.7,1.1,40,0.00,,,0.00,WUHU216HW,2013-08-29 15:57:00,
2013-08-29 10:02:00,61.2,35.3,29.84,NNE,23,0.0,1.8,38,0.00,,,0.00,WUHU216HW,2013-08-29 16:02:00,
2013-08-29 10:07:00,61.2,28.5,29.84,NNE,23,2.0,2.0,29,0.00,,,0.00,WUHU216HW,2013-08-29 16:07:00,
2013-08-29 10:12:00,61.4,28.7,29.84,WNW,293,0.0,2.0,29,0.01,,,0.01,WUHU216HW,2013-08-29 16:12:00,
2013-08-29 10:17:00,61.7,21.3,29.85,SSW,203,0.0,0.7,21,0.01,,,0.01,WUHU216HW,2013-08-29 16:17:00,
2013-08-29 10:22:00,62.5,22.9,29.85,NE,45,1.8,1.8,22,0.01,,,0.01,WUHU216HW,2013-08-29 16:22:00,
2013-08-29 10:27:00,63.7,25.8,29.85,NE,45,0.4,1.8,24,0.01,,,0.01,WUHU216HW,2013-08-29 16:27:00,
2013-08-29 10:32:00,64.3,29.2,29.85,North,0,1.1,1.1,27,0.01,,,0.01,WUHU216HW,2013-08-29 16:32:00,
2013-08-29 10:37:00,65.2,33.7,29.85,NE,45,0.2,1.8,31,0.01,,,0.01,WUHU216HW,2013-08-29 16:37:00,
2013-08-29 10:42:00,66.4,51.2,29.85,North,0,1.1,2.2,58,0.01,,,0.01,WUHU216HW,2013-08-29 16:42:00,
2013-08-29 10:47:00,67.1,50.9,29.85,ENE,68,0.2,2.2,56,0.01,,,0.01,WUHU216HW,2013-08-29 16:47:00,
2013-08-29 10:52:00,67.5,52.2,29.85,NE,45,0.0,0.7,58,0.01,,,0.01,WUHU216HW,2013-08-29 16:52:00,
2013-08-29 10:57:00,68.4,52.0,29.85,NE,45,0.0,0.7,56,0.01,,,0.01,WUHU216HW,2013-08-29 16:57:00,
2013-08-29 11:02:00,69.5,55.1,29.85,North,0,0.0,2.0,60,0.01,,,0.01,WUHU216HW,2013-08-29 17:02:00,
2013-08-29 11:07:00,70.0,55.6,29.85,North,0,0.2,2.0,60,0.01,,,0.01,WUHU216HW,2013-08-29 17:07:00,
2013-08-29 11:12:00,71.6,56.5,29.85,North,0,0.2,2.0,59,0.00,,,0.01,WUHU216HW,2013-08-29 17:12:00,
2013-08-29 11:17:00,73.1,57.9,29.85,NNE,23,0.2,2.0,59,0.00,,,0.01,WUHU216HW,2013-08-29 17:17:00,
2013-08-29 11:22:00,73.4,56.7,29.84,NNE,23,0.9,1.8,56,0.00,,,0.01,WUHU216HW,2013-08-29 17:22:00,
2013-08-29 11:27:00,71.8,55.7,29.85,NNE,23,0.4,1.8,57,0.00,,,0.01,WUHU216HW,2013-08-29 17:27:00,
2013-08-29 11:32:00,71.1,55.5,29.85,NE,45,1.1,1.1,58,0.00,,,0.01,WUHU216HW,2013-08-29 17:32:00,
2013-08-29 11:37:00,71.1,55.5,29.85,North,0,0.4,2.5,58,0.00,,,0.01,WUHU216HW,2013-08-29 17:37:00,
2013-08-29 11:42:00,70.9,54.9,29.85,North,0,1.1,2.5,57,0.00,,,0.01,WUHU216HW,2013-08-29 17:42:00,
2013-08-29 11:47:00,71.1,55.5,29.85,NNE,23,0.2,2.2,58,0.00,,,0.01,WUHU216HW,2013-08-29 17:47:00,
2013-08-29 11:52:00,72.7,56.0,29.85,SSW,203,0.4,2.2,56,0.00,,,0.01,WUHU216HW,2013-08-29 17:52:00,
2013-08-29 11:57:00,75.4,59.1,29.84,ESE,113,0.0,0.4,57,0.00,,,0.01,WUHU216HW,2013-08-29 17:57:00,
2013-08-29 12:02:00,76.3,59.0,29.84,NE,45,1.3,2.5,55,0.00,,,0.01,WUHU216HW,2013-08-29 18:02:00,
2013-08-29 12:07:00,76.0,57.1,29.84,NNE,23,0.9,2.5,52,0.00,,,0.01,WUHU216HW,2013-08-29 18:07:00,
2013-08-29 12:12:00,77.4,59.0,29.84,NNE,23,3.8,3.8,53,0.00,,,0.01,WUHU216HW,2013-08-29 18:12:00,
2013-08-29 12:17:00,77.4,56.8,29.84,NNE,23,3.4,3.8,49,0.00,,,0.01,WUHU216HW,2013-08-29 18:17:00,
2013-08-29 12:22:00,77.0,57.1,29.84,West,270,0.4,3.4,50,0.00,,,0.01,WUHU216HW,2013-08-29 18:22:00,
2013-08-29 12:27:00,78.5,57.8,29.84,NE,45,2.5,2.5,49,0.00,,,0.01,WUHU216HW,2013-08-29 18:27:00,
2013-08-29 12:32:00,79.2,55.4,29.83,North,0,1.8,3.4,44,0.00,,,0.01,WUHU216HW,2013-08-29 18:32:00,
2013-08-29 12:37:00,79.0,57.0,29.83,NNW,338,0.0,3.4,47,0.00,,,0.01,WUHU216HW,2013-08-29 18:37:00,
2013-08-29 12:42:00,81.0,57.6,29.83,NNE,23,1.6,3.4,45,0.00,,,0.01,WUHU216HW,2013-08-29 18:42:00,
2013-08-29 12:47:00,81.0,57.6,29.83,West,270,0.4,3.4,45,0.00,,,0.01,WUHU216HW,2013-08-29 18:47:00,
2013-08-29 12:52:00,82.8,60.4,29.83,ESE,113,0.0,2.9,47,0.00,,,0.01,WUHU216HW,2013-08-29 18:52:00,
2013-08-29 12:57:00,83.5,59.2,29.82,NE,45,0.9,2.5,44,0.00,,,0.01,WUHU216HW,2013-08-29 18:57:00,
2013-08-29 13:02:00,80.6,56.6,29.82,North,0,0.7,2.5,44,0.00,,,0.01,WUHU216HW,2013-08-29 19:02:00,
2013-08-29 13:07:00,81.5,59.3,29.82,West,270,0.4,2.2,47,0.00,,,0.01,WUHU216HW,2013-08-29 19:07:00,
2013-08-29 13:12:00,82.8,59.9,29.82,ESE,113,0.7,1.8,46,0.00,,,0.01,WUHU216HW,2013-08-29 19:12:00,
2013-08-29 13:17:00,83.7,58.1,29.82,NNW,338,1.1,1.8,42,0.00,,,0.01,WUHU216HW,2013-08-29 19:17:00,
2013-08-29 13:22:00,82.8,57.3,29.82,NW,315,0.0,4.5,42,0.00,,,0.01,WUHU216HW,2013-08-29 19:22:00,
2013-08-29 13:27:00,82.8,58.0,29.82,NE,45,1.3,4.5,43,0.00,,,0.01,WUHU216HW,2013-08-29 19:27:00,
2013-08-29 13:32:00,83.9,58.3,29.82,WSW,248,0.4,1.3,42,0.00,,,0.01,WUHU216HW,2013-08-29 19:32:00,
2013-08-29 13:37:00,83.9,59.6,29.81,ENE,68,0.0,1.1,44,0.00,,,0.01,WUHU216HW,2013-08-29 19:37:00,
2013-08-29 13:42:00,85.7,61.2,29.81,ENE,68,0.0,1.1,44,0.00,,,0.01,WUHU216HW,2013-08-29 19:42:00,
2013-08-29 13:47:00,86.4,61.9,29.81,East,90,0.0,1.1,44,0.00,,,0.01,WUHU216HW,2013-08-29 19:47:00,
2013-08-29 13:52:00,86.8,58.9,29.81,SSW,203,1.1,1.1,39,0.00,,,0.01,WUHU216HW,2013-08-29 19:52:00,
2013-08-29 13:57:00,86.8,58.1,29.81,NNE,23,1.3,1.3,38,0.00,,,0.01,WUHU216HW,2013-08-29 19:57:00,
2013-08-29 14:02:00,85.5,57.8,29.81,SE,135,1.3,1.3,39,0.00,,,0.01,WUHU216HW,2013-08-29 20:02:00,
2013-08-29 14:07:00,84.6,57.0,29.81,North,0,0.4,1.8,39,0.00,,,0.01,WUHU216HW,2013-08-29 20:07:00,
2013-08-29 14:12:00,84.2,58.1,29.81,North,0,0.0,1.8,41,0.00,,,0.01,WUHU216HW,2013-08-29 20:12:00,
2013-08-29 14:17:00,85.5,59.2,29.80,SW,225,0.4,0.7,41,0.00,,,0.01,WUHU216HW,2013-08-29 20:17:00,
2013-08-29 14:22:00,85.3,56.8,29.80,North,0,1.6,1.6,38,0.00,,,0.01,WUHU216HW,2013-08-29 20:22:00,
2013-08-29 14:27:00,83.5,56.8,29.80,NW,315,0.0,2.2,40,0.00,,,0.01,WUHU216HW,2013-08-29 20:27:00,
2013-08-29 14:32:00,82.4,55.8,29.80,NNW,338,0.4,2.2,40,0.00,,,0.01,WUHU216HW,2013-08-29 20:32:00,
2013-08-29 14:37:00,82.1,56.7,29.80,NNE,23,0.2,0.7,42,0.00,,,0.01,WUHU216HW,2013-08-29 20:37:00,
2013-08-29 14:42:00,81.2,55.3,29.80,North,0,0.4,1.1,41,0.00,,,0.01,WUHU216HW,2013-08-29 20:42:00,
2013-08-29 14:47:00,81.0,55.7,29.80,NW,315,1.1,1.1,42,0.00,,,0.01,WUHU216HW,2013-08-29 20:47:00,
2013-08-29 14:52:00,80.8,55.5,29.80,North,0,0.2,1.1,42,0.00,,,0.01,WUHU216HW,2013-08-29 20:52:00,
2013-08-29 14:57:00,81.2,57.2,29.80,North,0,0.0,2.5,44,0.00,,,0.01,WUHU216HW,2013-08-29 20:57:00,
2013-08-29 15:02:00,81.5,58.1,29.80,North,0,0.0,2.5,45,0.00,,,0.01,WUHU216HW,2013-08-29 21:02:00,
2013-08-29 15:07:00,82.1,56.7,29.80,NE,45,0.7,1.1,42,0.00,,,0.01,WUHU216HW,2013-08-29 21:07:00,
2013-08-29 15:12:00,81.9,55.9,29.80,NE,45,0.7,1.3,41,0.00,,,0.01,WUHU216HW,2013-08-29 21:12:00,
2013-08-29 15:17:00,82.4,57.1,29.79,NNE,23,1.1,1.3,42,0.00,,,0.01,WUHU216HW,2013-08-29 21:17:00,
2013-08-29 15:22:00,83.0,58.8,29.79,SE,135,0.7,1.3,44,0.00,,,0.01,WUHU216HW,2013-08-29 21:22:00,
2013-08-29 15:27:00,83.7,60.0,29.79,ESE,113,0.0,1.3,45,0.00,,,0.01,WUHU216HW,2013-08-29 21:27:00,
2013-08-29 15:32:00,83.7,59.4,29.78,NNW,338,0.0,0.7,44,0.00,,,0.01,WUHU216HW,2013-08-29 21:32:00,
2013-08-29 15:37:00,82.8,58.6,29.77,North,0,0.0,0.7,44,0.00,,,0.01,WUHU216HW,2013-08-29 21:37:00,
2013-08-29 15:45:00,81.4,56.1,29.76,North,0,1.1,1.1,42,0.00,,,0.01,WUHU216HW,2013-08-29 21:45:00,
2013-08-29 15:50:00,79.6,56.9,29.77,North,0,0.0,1.1,46,0.00,,,0.01,WUHU216HW,2013-08-29 21:50:00,
2013-08-29 15:56:00,79.2,57.8,29.77,North,0,0.0,0.4,48,0.00,,,0.01,WUHU216HW,2013-08-29 21:56:00,
2013-08-29 16:01:00,78.1,59.0,29.77,SSW,203,1.1,2.0,52,0.00,,,0.01,WUHU216HW,2013-08-29 22:01:00,
2013-08-29 16:08:00,75.2,56.0,29.81,East,90,6.5,12.8,51,0.00,,,0.01,WUHU216HW,2013-08-29 22:08:00,